Time;durP1;ratioP1;P1;durP2;ratioP2;P2;SDS_P1;SDS_P2;PMS_P1;PMS_P2;Temp;Humidity;BMP_temperature;BMP_pressure;BME280_temperature;BME280_humidity;BME280_pressure;Samples;Min_cycle;Max_cycle;Signal;HPM_P1;HPM_P2
2023/06/24 00:01:55;;;;;;;20.27;18.98;;;23.10;99.90;;;;;;5029374;28;20042;-76
2023/06/24 00:04:21;;;;;;;20.08;18.77;;;22.90;99.90;;;;;;5014658;28;20026;-75
2023/06/24 00:06:47;;;;;;;20.08;18.48;;;22.80;99.90;;;;;;5014679;28;20382;-75
2023/06/24 00:09:13;;;;;;;19.10;17.60;;;22.70;99.90;;;;;;5030193;28;20026;-75
2023/06/24 00:11:39;;;;;;;21.13;19.67;;;22.70;99.90;;;;;;5014462;28;20037;-76
2023/06/24 00:14:06;;;;;;;17.80;16.45;;;22.60;99.90;;;;;;5014965;28;20506;-75
2023/06/24 00:16:33;;;;;;;20.30;19.08;;;22.60;99.90;;;;;;5014227;28;20033;-75
2023/06/24 00:19:00;;;;;;;18.35;17.10;;;22.40;99.90;;;;;;5014556;28;20038;-75
2023/06/24 00:21:29;;;;;;;20.25;18.98;;;22.40;99.90;;;;;;5014300;28;20050;-75
2023/06/24 00:23:58;;;;;;;20.00;18.75;;;22.20;99.90;;;;;;5014657;28;20371;-75
2023/06/24 00:26:25;;;;;;;19.17;17.90;;;22.20;99.90;;;;;;5014367;28;20379;-76
2023/06/24 00:28:51;;;;;;;17.92;16.63;;;22.30;99.90;;;;;;5029874;28;20028;-75
2023/06/24 00:31:17;;;;;;;18.85;17.55;;;22.20;99.90;;;;;;5013625;28;20056;-75
2023/06/24 00:33:43;;;;;;;17.92;16.73;;;22.20;99.90;;;;;;5029640;28;20030;-75
2023/06/24 00:36:11;;;;;;;19.02;17.55;;;22.30;99.90;;;;;;5016252;28;20090;-75
2023/06/24 00:38:38;;;;;;;16.77;15.68;;;22.30;99.90;;;;;;4978962;28;20027;-75
2023/06/24 00:41:04;;;;;;;17.98;16.58;;;22.20;99.90;;;;;;5014027;28;20386;-75
2023/06/24 00:43:30;;;;;;;16.90;15.55;;;22.10;99.90;;;;;;5029458;28;20037;-75
2023/06/24 00:45:57;;;;;;;16.98;15.93;;;22.10;99.90;;;;;;5011725;28;20045;-75
2023/06/24 00:48:24;;;;;;;17.58;16.10;;;22.00;99.90;;;;;;5018329;28;20053;-76
2023/06/24 00:50:50;;;;;;;17.45;16.25;;;22.10;99.90;;;;;;4999903;28;20033;-75
2023/06/24 00:53:17;;;;;;;17.10;15.93;;;22.20;99.90;;;;;;5029386;28;20038;-75
2023/06/24 00:55:45;;;;;;;15.93;14.52;;;22.20;99.90;;;;;;5029083;28;20029;-76
2023/06/24 00:58:16;;;;;;;16.73;15.32;;;22.10;99.90;;;;;;5014058;28;20033;-75
2023/06/24 01:00:43;;;;;;;16.55;15.38;;;22.00;99.90;;;;;;5027592;28;20045;-75
2023/06/24 01:03:13;;;;;;;15.75;14.45;;;22.00;99.90;;;;;;5028466;28;20030;-76
2023/06/24 01:05:44;;;;;;;13.50;12.48;;;22.10;99.90;;;;;;5028309;28;20045;-75
2023/06/24 01:08:15;;;;;;;13.27;12.10;;;22.00;99.90;;;;;;5029141;28;20049;-75
2023/06/24 01:10:41;;;;;;;13.52;12.27;;;21.80;99.90;;;;;;5028237;28;20030;-75
2023/06/24 01:13:08;;;;;;;13.95;13.00;;;21.90;99.90;;;;;;5012435;28;20046;-75
2023/06/24 01:15:34;;;;;;;13.55;12.45;;;21.90;99.90;;;;;;5012563;28;20041;-75
2023/06/24 01:18:19;;;;;;;14.02;12.88;;;21.80;99.90;;;;;;5029035;28;20030;-75
2023/06/24 01:21:06;;;;;;;13.05;11.98;;;21.70;99.90;;;;;;5013262;28;20376;-75
2023/06/24 01:23:54;;;;;;;12.38;11.48;;;21.60;99.90;;;;;;5009695;28;20041;-75
2023/06/24 01:26:44;;;;;;;10.98;10.18;;;21.60;99.90;;;;;;5013227;28;20041;-75
2023/06/24 01:29:30;;;;;;;10.63;9.75;;;21.60;99.90;;;;;;5008995;28;20046;-76
2023/06/24 01:32:33;;;;;;;10.73;9.85;;;21.60;99.90;;;;;;5011123;28;20034;-75
2023/06/24 01:35:04;;;;;;;11.15;10.00;;;21.70;99.90;;;;;;5012352;28;20030;-75
2023/06/24 01:37:40;;;;;;;12.00;11.13;;;21.70;99.90;;;;;;4976548;28;20047;-75
2023/06/24 01:40:10;;;;;;;12.07;10.98;;;21.90;99.90;;;;;;5000544;28;20030;-75
2023/06/24 01:42:41;;;;;;;11.38;10.52;;;21.90;99.90;;;;;;4974187;28;20039;-75
2023/06/24 01:45:08;;;;;;;11.23;10.32;;;21.90;99.90;;;;;;4972931;28;20022;-75
2023/06/24 01:47:34;;;;;;;12.95;11.77;;;21.90;99.90;;;;;;5008478;28;20507;-75
2023/06/24 01:50:02;;;;;;;12.77;11.60;;;21.80;99.90;;;;;;5024699;28;20057;-75
2023/06/24 01:52:28;;;;;;;13.65;12.57;;;21.90;99.90;;;;;;5024618;28;20046;-75
2023/06/24 01:54:54;;;;;;;12.45;11.35;;;22.00;99.90;;;;;;5024977;28;20027;-75
2023/06/24 01:57:20;;;;;;;12.90;11.75;;;22.00;99.90;;;;;;5024626;28;20038;-75
2023/06/24 01:59:46;;;;;;;12.90;11.63;;;21.80;99.90;;;;;;5023824;28;20045;-75
2023/06/24 02:02:12;;;;;;;12.60;11.52;;;21.70;99.90;;;;;;5025112;28;20407;-75
2023/06/24 02:04:39;;;;;;;12.93;11.90;;;21.70;99.90;;;;;;5014037;28;20029;-75
2023/06/24 02:07:05;;;;;;;11.93;11.02;;;21.70;99.90;;;;;;5030727;28;20390;-75
2023/06/24 02:09:32;;;;;;;12.27;11.15;;;21.60;99.90;;;;;;5018178;28;20034;-75
2023/06/24 02:11:58;;;;;;;12.38;11.27;;;21.50;99.90;;;;;;5021160;28;20047;-75
2023/06/24 02:14:26;;;;;;;11.50;10.52;;;21.60;99.90;;;;;;5025956;28;20026;-75
2023/06/24 02:16:56;;;;;;;12.05;10.95;;;21.60;99.90;;;;;;5042505;28;20034;-75
2023/06/24 02:19:26;;;;;;;11.87;10.87;;;21.60;99.90;;;;;;5026171;28;20382;-75
2023/06/24 02:21:52;;;;;;;11.77;10.77;;;21.60;99.90;;;;;;5036951;28;20041;-75
2023/06/24 02:24:19;;;;;;;12.70;11.55;;;21.50;99.90;;;;;;4990401;28;20023;-75
2023/06/24 02:26:45;;;;;;;11.35;10.45;;;21.30;99.90;;;;;;5006358;28;20040;-75
2023/06/24 02:29:12;;;;;;;13.10;12.15;;;21.20;99.90;;;;;;5011027;28;20042;-75
2023/06/24 02:31:38;;;;;;;11.32;9.95;;;21.10;99.90;;;;;;5009140;28;20057;-75
2023/06/24 02:34:04;;;;;;;10.38;9.38;;;21.00;99.90;;;;;;4993435;28;20042;-75
2023/06/24 02:36:30;;;;;;;10.60;9.60;;;21.00;99.90;;;;;;5018538;28;20049;-75
2023/06/24 02:38:56;;;;;;;12.00;10.68;;;21.10;99.90;;;;;;5027784;28;20382;-75
2023/06/24 02:41:22;;;;;;;11.05;10.05;;;21.00;99.90;;;;;;5043960;28;20037;-75
2023/06/24 02:43:48;;;;;;;10.75;9.85;;;21.00;99.90;;;;;;5012116;28;20030;-75
2023/06/24 02:46:15;;;;;;;11.45;10.35;;;21.10;99.90;;;;;;5011754;28;20042;-75
2023/06/24 02:48:41;;;;;;;11.27;10.38;;;21.10;99.90;;;;;;5043943;28;20049;-75
2023/06/24 02:51:07;;;;;;;11.68;10.73;;;21.20;99.90;;;;;;5011009;28;20034;-75
2023/06/24 02:53:33;;;;;;;11.02;9.93;;;21.20;99.90;;;;;;5027612;28;20026;-75
2023/06/24 02:55:59;;;;;;;11.32;10.32;;;21.10;99.90;;;;;;4994739;28;20042;-75
2023/06/24 02:58:31;;;;;;;10.60;9.65;;;21.10;99.90;;;;;;5027132;28;20033;-75
2023/06/24 03:01:00;;;;;;;10.68;9.68;;;21.20;99.90;;;;;;5010244;28;20034;-75
2023/06/24 03:03:27;;;;;;;11.27;10.18;;;21.30;99.90;;;;;;4994352;28;20045;-75
2023/06/24 03:05:54;;;;;;;11.27;10.48;;;21.40;99.90;;;;;;5010615;28;20487;-75
2023/06/24 03:08:20;;;;;;;11.50;10.30;;;21.30;99.90;;;;;;5027382;28;20046;-75
2023/06/24 03:10:46;;;;;;;11.82;10.73;;;21.30;99.90;;;;;;5026756;28;20030;-74
2023/06/24 03:13:12;;;;;;;11.63;10.68;;;21.40;99.90;;;;;;5012030;28;20038;-75
2023/06/24 03:15:38;;;;;;;11.55;10.65;;;21.40;99.90;;;;;;5011417;28;20034;-75
2023/06/24 03:18:04;;;;;;;12.25;10.57;;;21.30;99.90;;;;;;5027381;28;20383;-75
2023/06/24 03:20:38;;;;;;;11.30;10.40;;;21.40;99.90;;;;;;5026877;28;20048;-75
2023/06/24 03:23:07;;;;;;;11.18;10.35;;;21.30;99.90;;;;;;5012548;28;20375;-75
2023/06/24 03:25:33;;;;;;;10.07;9.18;;;21.30;99.90;;;;;;5028478;28;20372;-75
2023/06/24 03:28:09;;;;;;;13.05;11.98;;;21.30;99.90;;;;;;5014568;28;20053;-75
2023/06/24 03:30:35;;;;;;;11.75;10.73;;;21.30;99.90;;;;;;5029144;28;20038;-75
2023/06/24 03:33:01;;;;;;;12.60;11.35;;;21.20;99.90;;;;;;5014045;28;20034;-75
2023/06/24 03:35:28;;;;;;;12.98;11.93;;;21.10;99.90;;;;;;5013964;28;20037;-76
2023/06/24 03:37:54;;;;;;;13.20;12.20;;;20.80;99.90;;;;;;5030873;28;20038;-75
2023/06/24 03:40:20;;;;;;;12.15;11.15;;;20.70;99.90;;;;;;5015059;28;20383;-76
2023/06/24 03:42:46;;;;;;;11.20;10.20;;;20.70;99.90;;;;;;5030712;28;20033;-75
2023/06/24 03:45:12;;;;;;;10.95;9.95;;;20.80;99.90;;;;;;5014712;28;20046;-75
2023/06/24 03:47:38;;;;;;;11.00;10.02;;;20.90;99.90;;;;;;5014079;28;20034;-75
2023/06/24 03:50:05;;;;;;;10.15;9.25;;;21.00;99.90;;;;;;5014193;28;20483;-75
2023/06/24 03:52:31;;;;;;;11.07;9.98;;;21.10;99.90;;;;;;5015335;28;20379;-75
2023/06/24 03:54:57;;;;;;;10.15;9.25;;;21.10;99.90;;;;;;5029721;28;20049;-75
2023/06/24 03:57:23;;;;;;;11.18;10.05;;;20.90;99.90;;;;;;5014959;28;20048;-75
2023/06/24 03:59:49;;;;;;;9.45;8.55;;;20.70;99.90;;;;;;5030434;28;20037;-75
2023/06/24 04:02:17;;;;;;;11.95;9.07;;;20.70;99.90;;;;;;5014286;28;20049;-75
2023/06/24 04:04:43;;;;;;;10.40;9.50;;;20.70;99.90;;;;;;5013984;28;20403;-75
2023/06/24 04:07:09;;;;;;;10.00;9.10;;;20.80;99.90;;;;;;5014784;28;20049;-75
2023/06/24 04:09:35;;;;;;;10.23;9.27;;;20.80;99.90;;;;;;5015035;28;20372;-75
2023/06/24 04:12:02;;;;;;;10.95;9.85;;;20.80;99.90;;;;;;5013214;28;20041;-75
2023/06/24 04:14:28;;;;;;;9.95;8.98;;;20.80;99.90;;;;;;5014782;28;20356;-75
2023/06/24 04:16:54;;;;;;;11.10;9.95;;;20.80;99.90;;;;;;5014094;28;20042;-75
2023/06/24 04:19:21;;;;;;;11.07;9.80;;;20.80;99.90;;;;;;5014724;28;20033;-75
2023/06/24 04:21:47;;;;;;;10.80;9.90;;;20.70;99.90;;;;;;5013308;28;20049;-75
2023/06/24 04:24:13;;;;;;;11.13;9.65;;;20.70;99.90;;;;;;5014321;28;20037;-75
2023/06/24 04:26:39;;;;;;;10.68;9.60;;;20.50;99.90;;;;;;5014364;28;20399;-75
2023/06/24 04:29:05;;;;;;;10.57;9.20;;;20.50;99.90;;;;;;5014606;28;20029;-75
2023/06/24 04:31:31;;;;;;;10.00;9.00;;;20.60;99.90;;;;;;5012537;28;20418;-76
2023/06/24 04:33:57;;;;;;;10.35;9.13;;;20.60;99.90;;;;;;5014484;28;20045;-75
2023/06/24 04:36:23;;;;;;;10.68;8.82;;;20.60;99.90;;;;;;5012848;28;20034;-75
2023/06/24 04:38:49;;;;;;;10.65;9.15;;;20.60;99.90;;;;;;5029583;28;20038;-75
2023/06/24 04:41:15;;;;;;;9.88;8.90;;;20.60;99.90;;;;;;5014355;28;20037;-75
2023/06/24 04:43:42;;;;;;;11.18;9.70;;;20.60;99.90;;;;;;5014235;28;20030;-75
2023/06/24 04:46:09;;;;;;;10.68;9.73;;;20.50;99.90;;;;;;5013610;28;20048;-75
2023/06/24 04:48:35;;;;;;;9.50;8.57;;;20.60;99.90;;;;;;5014003;28;20042;-75
2023/06/24 04:51:01;;;;;;;11.13;8.77;;;20.50;99.90;;;;;;5013862;28;20053;-75
2023/06/24 04:53:27;;;;;;;11.90;8.75;;;20.60;99.90;;;;;;4996225;28;20063;-75
2023/06/24 04:55:53;;;;;;;9.18;8.38;;;20.70;99.90;;;;;;5013669;28;20053;-75
2023/06/24 04:58:19;;;;;;;9.52;8.50;;;20.70;99.90;;;;;;5014181;28;20026;-75
2023/06/24 05:00:45;;;;;;;9.48;8.48;;;20.80;99.90;;;;;;5012190;28;20045;-75
2023/06/24 05:03:13;;;;;;;9.65;8.55;;;20.80;99.90;;;;;;5013747;28;20054;-75
2023/06/24 05:05:39;;;;;;;10.00;8.65;;;20.90;99.90;;;;;;5013686;28;20034;-75
2023/06/24 05:08:05;;;;;;;13.18;8.98;;;21.00;99.90;;;;;;5013739;28;20034;-75
2023/06/24 05:10:31;;;;;;;10.07;9.18;;;21.20;99.90;;;;;;5012392;28;20395;-75
2023/06/24 05:12:57;;;;;;;11.07;10.18;;;21.30;99.90;;;;;;5013631;28;20033;-75
2023/06/24 05:15:23;;;;;;;13.65;12.40;;;21.30;99.90;;;;;;5012927;28;20379;-75
2023/06/24 05:17:49;;;;;;;14.70;13.60;;;21.40;99.90;;;;;;5013601;28;20037;-75
2023/06/24 05:20:17;;;;;;;14.68;13.50;;;21.60;99.90;;;;;;5013313;28;20414;-75
2023/06/24 05:22:43;;;;;;;13.43;12.35;;;21.60;99.90;;;;;;5028102;28;20422;-75
2023/06/24 05:25:09;;;;;;;14.75;13.55;;;21.70;99.90;;;;;;5013561;28;20471;-76
2023/06/24 05:27:35;;;;;;;16.20;15.10;;;21.80;99.90;;;;;;5013292;28;20042;-75
2023/06/24 05:30:02;;;;;;;17.38;16.20;;;21.80;99.90;;;;;;5013375;28;20379;-75
2023/06/24 05:32:28;;;;;;;18.40;16.90;;;21.90;99.90;;;;;;5012312;28;20411;-75
2023/06/24 05:34:54;;;;;;;20.30;18.60;;;22.00;99.90;;;;;;5029514;28;20037;-75
2023/06/24 05:37:20;;;;;;;18.63;17.23;;;22.20;99.90;;;;;;5013024;28;20403;-75
2023/06/24 05:39:46;;;;;;;19.30;18.02;;;22.20;99.90;;;;;;5013280;28;20033;-75
2023/06/24 05:42:12;;;;;;;19.10;17.83;;;22.30;99.90;;;;;;5011829;28;20400;-75
2023/06/24 05:44:38;;;;;;;20.65;19.35;;;22.40;99.90;;;;;;4996049;28;20391;-75
2023/06/24 05:47:04;;;;;;;22.00;20.60;;;22.50;99.90;;;;;;5012366;28;20038;-76
2023/06/24 05:49:30;;;;;;;20.80;19.30;;;22.60;99.90;;;;;;5012991;28;20050;-75
2023/06/24 05:51:57;;;;;;;21.35;19.77;;;22.50;99.90;;;;;;5012655;28;20092;-75
2023/06/24 05:54:23;;;;;;;21.55;20.25;;;22.50;99.90;;;;;;5011804;28;20018;-75
2023/06/24 05:56:50;;;;;;;21.38;19.88;;;22.60;99.90;;;;;;5011634;28;20340;-74
2023/06/24 05:59:16;;;;;;;22.02;20.52;;;22.70;99.90;;;;;;5013039;28;20026;-75
2023/06/24 06:01:42;;;;;;;21.17;19.67;;;22.70;99.90;;;;;;5012199;28;20046;-75
2023/06/24 06:04:08;;;;;;;21.02;19.70;;;22.70;99.90;;;;;;5012909;28;20049;-75
2023/06/24 06:06:34;;;;;;;24.23;22.55;;;22.80;99.90;;;;;;5012214;28;20034;-75
2023/06/24 06:09:00;;;;;;;22.30;20.58;;;22.90;99.90;;;;;;5012769;28;20045;-74
2023/06/24 06:11:26;;;;;;;21.92;20.42;;;23.00;99.90;;;;;;5012702;28;20041;-75
2023/06/24 06:13:52;;;;;;;22.35;20.55;;;23.00;99.90;;;;;;5011570;28;20034;-75
2023/06/24 06:16:18;;;;;;;21.00;19.75;;;23.10;99.90;;;;;;5012315;28;20037;-75
2023/06/24 06:18:45;;;;;;;20.23;18.95;;;23.10;99.90;;;;;;5011573;28;20490;-75
2023/06/24 06:21:11;;;;;;;21.55;20.02;;;23.10;99.90;;;;;;5010799;28;20037;-75
2023/06/24 06:23:37;;;;;;;21.98;20.48;;;23.00;99.90;;;;;;5012750;28;20467;-75
2023/06/24 06:26:03;;;;;;;21.95;20.33;;;23.10;99.90;;;;;;5012360;28;20061;-75
2023/06/24 06:28:29;;;;;;;20.50;19.10;;;23.20;99.90;;;;;;5011508;28;20497;-75
2023/06/24 06:30:56;;;;;;;19.50;18.08;;;23.30;99.90;;;;;;5012065;28;20038;-75
2023/06/24 06:33:23;;;;;;;23.42;21.92;;;23.50;99.90;;;;;;5016219;28;20393;-75
2023/06/24 06:35:49;;;;;;;23.35;21.73;;;23.60;99.90;;;;;;5026299;28;20475;-75
2023/06/24 06:38:15;;;;;;;21.77;20.40;;;23.80;99.90;;;;;;5044244;28;20352;-74
2023/06/24 06:40:41;;;;;;;23.25;21.58;;;23.80;99.90;;;;;;5044033;28;20041;-75
2023/06/24 06:43:07;;;;;;;26.35;24.65;;;23.80;99.90;;;;;;5012291;28;20045;-75
2023/06/24 06:45:33;;;;;;;25.52;23.92;;;23.90;99.90;;;;;;5026992;28;20396;-75
2023/06/24 06:47:59;;;;;;;26.50;24.65;;;24.00;99.90;;;;;;5012131;28;20034;-75
2023/06/24 06:50:25;;;;;;;24.95;23.35;;;23.80;99.90;;;;;;5011907;28;20041;-75
2023/06/24 06:52:52;;;;;;;24.50;23.08;;;23.70;99.90;;;;;;5012304;28;20379;-74
2023/06/24 06:55:18;;;;;;;23.00;21.50;;;23.70;99.90;;;;;;5010874;28;20448;-75
2023/06/24 06:57:44;;;;;;;25.15;23.45;;;23.70;99.90;;;;;;5012113;28;20045;-75
2023/06/24 07:00:11;;;;;;;23.50;21.98;;;23.80;99.90;;;;;;4996078;28;20394;-74
2023/06/24 07:02:37;;;;;;;26.13;24.33;;;23.80;99.90;;;;;;4996373;28;20053;-75
2023/06/24 07:05:03;;;;;;;23.30;21.90;;;24.00;99.90;;;;;;4996236;28;20475;-75
2023/06/24 07:07:29;;;;;;;25.02;23.15;;;24.20;99.90;;;;;;5015079;28;20030;-74
2023/06/24 07:09:56;;;;;;;24.73;23.33;;;24.20;99.90;;;;;;5016001;28;20029;-75
2023/06/24 07:12:23;;;;;;;24.98;23.27;;;24.30;99.90;;;;;;5014497;28;20407;-74
2023/06/24 07:14:50;;;;;;;24.85;23.02;;;24.50;99.90;;;;;;5016120;28;20383;-73
2023/06/24 07:17:16;;;;;;;29.10;26.92;;;24.40;99.90;;;;;;4995429;28;20034;-75
2023/06/24 07:19:42;;;;;;;23.55;22.15;;;24.30;99.90;;;;;;4996365;28;20027;-75
2023/06/24 07:22:09;;;;;;;24.88;23.38;;;24.50;99.90;;;;;;4995938;28;20049;-75
2023/06/24 07:24:35;;;;;;;26.27;24.67;;;24.60;99.90;;;;;;5011428;28;20387;-75
2023/06/24 07:27:01;;;;;;;26.48;24.77;;;24.60;99.90;;;;;;5011065;28;20046;-75
2023/06/24 07:29:27;;;;;;;26.30;24.70;;;24.70;99.90;;;;;;5011378;28;20034;-75
2023/06/24 07:31:53;;;;;;;30.88;29.10;;;24.80;99.90;;;;;;4994920;28;20061;-74
2023/06/24 07:34:19;;;;;;;32.85;30.80;;;25.00;99.90;;;;;;4995907;28;20030;-75
2023/06/24 07:36:45;;;;;;;34.65;32.60;;;25.20;99.90;;;;;;4995642;28;20057;-75
2023/06/24 07:39:11;;;;;;;31.95;29.77;;;25.20;99.90;;;;;;5010923;28;20033;-75
2023/06/24 07:41:38;;;;;;;35.53;33.33;;;25.30;99.90;;;;;;4995648;28;20039;-74
2023/06/24 07:44:04;;;;;;;34.83;32.92;;;25.30;99.90;;;;;;5010879;28;20034;-75
2023/06/24 07:46:30;;;;;;;32.08;30.23;;;25.30;99.90;;;;;;4994774;28;20046;-75
2023/06/24 07:48:56;;;;;;;38.00;35.60;;;25.30;99.90;;;;;;5010652;28;20054;-75
2023/06/24 07:51:22;;;;;;;29.90;27.90;;;25.30;99.90;;;;;;4994311;28;20037;-75
2023/06/24 07:53:48;;;;;;;32.33;30.48;;;25.60;99.90;;;;;;4995489;28;20026;-75
2023/06/24 07:56:14;;;;;;;34.97;32.92;;;25.60;99.90;;;;;;5010511;28;20030;-75
2023/06/24 07:58:40;;;;;;;30.77;28.73;;;25.50;99.90;;;;;;5010813;28;20030;-75
2023/06/24 08:01:06;;;;;;;18.63;17.35;;;25.50;99.90;;;;;;5009507;28;20034;-75
2023/06/24 08:03:33;;;;;;;23.88;22.48;;;25.70;99.90;;;;;;4995478;28;20031;-75
2023/06/24 08:05:59;;;;;;;36.50;34.53;;;26.00;99.90;;;;;;5010298;28;20161;-75
2023/06/24 08:08:25;;;;;;;22.17;20.77;;;26.10;99.90;;;;;;5010551;28;20031;-75
2023/06/24 08:10:51;;;;;;;23.08;21.50;;;26.30;99.90;;;;;;4994976;28;20034;-74
2023/06/24 08:13:17;;;;;;;23.65;22.05;;;26.40;99.90;;;;;;4994394;28;20057;-75
2023/06/24 08:15:44;;;;;;;21.52;20.08;;;26.40;99.90;;;;;;4994151;28;20038;-75
2023/06/24 08:18:10;;;;;;;18.58;17.25;;;26.30;99.90;;;;;;4995209;28;20026;-74
2023/06/24 08:20:36;;;;;;;21.45;20.05;;;26.20;99.90;;;;;;4994890;28;20029;-75
2023/06/24 08:23:02;;;;;;;21.33;19.85;;;26.30;99.90;;;;;;5009955;28;20475;-75
2023/06/24 08:25:30;;;;;;;17.90;16.70;;;26.50;99.90;;;;;;5010151;28;20027;-75
2023/06/24 08:27:56;;;;;;;20.02;18.35;;;26.60;99.90;;;;;;4995061;28;20034;-76
2023/06/24 08:30:22;;;;;;;19.63;18.15;;;26.70;99.90;;;;;;5008814;28;20045;-75
2023/06/24 08:32:48;;;;;;;16.63;15.43;;;26.80;99.90;;;;;;4993777;28;20035;-75
2023/06/24 08:35:14;;;;;;;15.43;14.32;;;26.80;99.90;;;;;;4994478;28;20033;-75
2023/06/24 08:37:40;;;;;;;16.27;15.02;;;26.90;99.90;;;;;;4994382;28;20026;-75
2023/06/24 08:40:07;;;;;;;20.85;19.52;;;27.00;99.90;;;;;;4994989;28;20031;-75
2023/06/24 08:42:33;;;;;;;35.17;33.25;;;27.10;99.90;;;;;;4993162;28;20042;-75
2023/06/24 08:44:59;;;;;;;42.60;40.30;;;27.00;99.90;;;;;;4993563;28;20399;-75
2023/06/24 08:47:25;;;;;;;37.83;35.80;;;27.00;99.90;;;;;;4993969;28;20042;-75
2023/06/24 08:49:57;;;;;;;19.63;18.42;;;27.20;99.90;;;;;;4993420;28;20038;-75
2023/06/24 08:52:26;;;;;;;20.67;19.38;;;27.30;99.90;;;;;;4993074;28;20390;-75
2023/06/24 08:54:52;;;;;;;19.80;18.25;;;27.40;99.90;;;;;;5009686;28;20026;-74
2023/06/24 08:57:18;;;;;;;20.65;19.35;;;27.50;99.90;;;;;;5009300;28;20476;-75
2023/06/24 08:59:44;;;;;;;24.45;22.85;;;27.60;99.90;;;;;;5009004;28;20033;-75
2023/06/24 09:02:11;;;;;;;25.42;23.83;;;27.80;99.90;;;;;;5008632;28;20411;-75
2023/06/24 09:04:37;;;;;;;30.30;28.50;;;27.90;99.90;;;;;;5009379;28;20027;-75
2023/06/24 09:07:03;;;;;;;30.17;28.38;;;28.10;99.90;;;;;;4993886;28;20054;-75
2023/06/24 09:09:29;;;;;;;38.38;36.28;;;28.20;99.90;;;;;;4994314;28;20030;-74
2023/06/24 09:11:56;;;;;;;43.08;40.78;;;28.20;99.90;;;;;;4993868;28;20117;-75
2023/06/24 09:14:24;;;;;;;45.20;42.75;;;28.20;99.90;;;;;;4993788;28;20628;-76
2023/06/24 09:16:54;;;;;;;39.42;37.38;;;28.30;99.90;;;;;;5008504;28;20395;-74
2023/06/24 09:19:24;;;;;;;51.25;48.33;;;28.20;99.90;;;;;;5009678;28;20035;-75
2023/06/24 09:21:52;;;;;;;45.67;43.13;;;28.30;99.90;;;;;;4993479;28;20038;-75
2023/06/24 09:24:18;;;;;;;46.00;43.47;;;28.20;99.90;;;;;;5008352;28;20154;-74
2023/06/24 09:26:44;;;;;;;52.63;49.95;;;28.20;99.90;;;;;;4993627;28;20030;-75
2023/06/24 09:29:13;;;;;;;54.55;51.65;;;28.50;99.90;;;;;;4993472;28;20039;-76
2023/06/24 09:31:47;;;;;;;57.05;54.08;;;28.70;99.90;;;;;;5008251;28;20637;-75
2023/06/24 09:34:14;;;;;;;61.78;58.40;;;28.70;99.90;;;;;;5008726;28;20400;-76
2023/06/24 09:36:44;;;;;;;56.63;53.70;;;28.60;99.90;;;;;;5008142;28;20026;-75
2023/06/24 09:39:11;;;;;;;62.97;59.72;;;28.80;99.90;;;;;;4994080;28;20042;-76
2023/06/24 09:41:41;;;;;;;53.35;50.60;;;28.80;99.90;;;;;;4999759;28;20042;-75
2023/06/24 09:44:13;;;;;;;67.38;63.92;;;28.70;99.90;;;;;;4993271;28;20380;-75
2023/06/24 09:46:39;;;;;;;60.03;56.88;;;28.90;99.90;;;;;;5007758;28;20046;-75
2023/06/24 09:49:05;;;;;;;72.43;68.57;;;29.10;99.90;;;;;;4995236;28;20050;-75
2023/06/24 09:51:39;;;;;;;52.25;49.40;;;29.20;99.90;;;;;;4993288;28;20053;-75
2023/06/24 09:54:06;;;;;;;56.50;53.35;;;29.10;99.10;;;;;;5008619;28;20033;-75
2023/06/24 09:56:34;;;;;;;66.70;63.33;;;29.10;99.10;;;;;;4993050;28;20049;-74
2023/06/24 09:59:01;;;;;;;52.95;50.03;;;29.00;99.40;;;;;;5008001;28;20026;-74
2023/06/24 10:01:27;;;;;;;52.08;49.38;;;29.30;99.40;;;;;;4991239;28;20065;-75
2023/06/24 10:03:53;;;;;;;48.85;46.28;;;29.50;98.80;;;;;;5008111;28;20042;-75
2023/06/24 10:06:19;;;;;;;58.38;55.35;;;29.50;97.40;;;;;;5008151;28;20041;-75
2023/06/24 10:08:45;;;;;;;53.97;51.17;;;29.40;98.00;;;;;;5008292;28;20037;-75
2023/06/24 10:11:11;;;;;;;49.15;46.38;;;29.20;97.60;;;;;;5008183;28;20039;-75
2023/06/24 10:13:37;;;;;;;46.03;43.53;;;29.20;97.10;;;;;;4992900;28;20030;-76
2023/06/24 10:16:03;;;;;;;52.95;50.25;;;29.50;97.30;;;;;;5007629;28;20041;-75
2023/06/24 10:18:39;;;;;;;46.83;44.40;;;29.50;96.80;;;;;;5008281;28;20038;-75
2023/06/24 10:21:06;;;;;;;47.95;45.38;;;29.80;97.00;;;;;;5007683;28;20030;-75
2023/06/24 10:23:47;;;;;;;44.20;41.90;;;29.70;96.70;;;;;;4990977;28;20428;-75
2023/06/24 10:26:24;;;;;;;44.20;41.72;;;29.80;96.40;;;;;;4991948;28;20038;-75
2023/06/24 10:29:09;;;;;;;37.75;35.75;;;29.80;96.60;;;;;;5008052;28;20049;-75
2023/06/24 10:31:55;;;;;;;40.90;38.80;;;29.80;95.00;;;;;;5007320;28;20038;-75
2023/06/24 10:34:41;;;;;;;44.28;41.65;;;29.90;95.30;;;;;;4991606;28;20046;-74
2023/06/24 10:37:07;;;;;;;45.88;43.55;;;29.90;95.30;;;;;;5007567;28;20475;-74
2023/06/24 10:39:39;;;;;;;42.15;39.83;;;30.00;95.50;;;;;;4992822;28;20483;-75
2023/06/24 10:42:23;;;;;;;39.03;36.97;;;30.00;95.10;;;;;;4992249;28;20050;-75
2023/06/24 10:44:50;;;;;;;44.13;41.60;;;29.90;94.50;;;;;;4991445;28;20034;-74
2023/06/24 10:47:17;;;;;;;45.03;42.53;;;30.00;95.20;;;;;;5006925;28;20496;-75
2023/06/24 10:49:43;;;;;;;47.20;44.35;;;30.10;95.00;;;;;;4991372;28;20054;-75
2023/06/24 10:52:09;;;;;;;41.60;39.25;;;30.30;94.60;;;;;;4992461;28;20471;-75
2023/06/24 10:54:39;;;;;;;55.10;51.67;;;30.30;93.80;;;;;;4991414;28;20042;-75
2023/06/24 10:57:07;;;;;;;40.45;38.15;;;30.30;94.60;;;;;;5007187;28;20034;-75
2023/06/24 10:59:39;;;;;;;50.92;47.47;;;30.40;94.50;;;;;;4992618;28;20035;-75
2023/06/24 11:02:07;;;;;;;43.13;40.72;;;30.70;94.40;;;;;;5006611;28;20060;-75
2023/06/24 11:04:33;;;;;;;39.45;37.35;;;30.80;94.20;;;;;;4991337;28;20395;-75
2023/06/24 11:06:59;;;;;;;43.10;40.78;;;30.70;92.30;;;;;;5007385;28;20039;-75
2023/06/24 11:09:26;;;;;;;40.45;38.38;;;30.50;93.10;;;;;;5007486;28;20060;-75
2023/06/24 11:11:52;;;;;;;38.58;36.60;;;30.40;92.80;;;;;;4992267;28;20037;-75
2023/06/24 11:14:19;;;;;;;40.70;38.60;;;30.60;92.30;;;;;;5007413;28;20031;-75
2023/06/24 11:16:46;;;;;;;38.83;36.83;;;30.80;91.70;;;;;;4991751;28;20037;-75
2023/06/24 11:19:12;;;;;;;36.92;34.92;;;30.80;91.40;;;;;;4992455;28;20035;-75
2023/06/24 11:21:38;;;;;;;40.38;38.33;;;30.90;91.70;;;;;;4991009;28;20468;-75
2023/06/24 11:24:05;;;;;;;39.08;37.08;;;30.80;89.80;;;;;;5007195;28;20042;-76
2023/06/24 11:26:32;;;;;;;41.50;39.40;;;30.80;89.90;;;;;;4992109;28;20038;-75
2023/06/24 11:28:58;;;;;;;42.33;40.05;;;30.90;87.10;;;;;;5007611;28;20026;-75
2023/06/24 11:31:27;;;;;;;40.28;38.17;;;31.00;87.50;;;;;;4991802;28;20037;-75
2023/06/24 11:33:53;;;;;;;38.30;36.30;;;31.20;87.90;;;;;;4992289;28;20038;-75
2023/06/24 11:36:20;;;;;;;37.92;35.95;;;31.20;87.00;;;;;;4991887;28;20027;-74
2023/06/24 11:38:46;;;;;;;38.63;36.63;;;31.30;88.40;;;;;;5007496;28;20037;-74
2023/06/24 11:41:15;;;;;;;36.83;34.92;;;31.10;88.90;;;;;;4992062;28;20031;-75
2023/06/24 11:43:45;;;;;;;40.65;38.55;;;31.00;89.10;;;;;;5007020;28;20039;-74
2023/06/24 11:46:20;;;;;;;40.17;38.03;;;30.60;87.50;;;;;;5008021;28;20039;-74
2023/06/24 11:48:46;;;;;;;38.55;36.55;;;30.90;87.70;;;;;;5009503;28;20054;-74
2023/06/24 11:51:15;;;;;;;40.85;38.75;;;31.10;88.30;;;;;;4995494;28;20037;-74
2023/06/24 11:53:43;;;;;;;40.95;38.75;;;31.00;87.80;;;;;;4995372;28;20030;-74
2023/06/24 11:56:09;;;;;;;37.03;35.15;;;31.10;87.20;;;;;;5010442;28;20361;-74
2023/06/24 11:58:35;;;;;;;42.10;39.60;;;31.10;87.80;;;;;;4995555;28;20486;-74
2023/06/24 12:01:02;;;;;;;42.90;40.67;;;31.00;83.60;;;;;;4994745;28;20042;-74
2023/06/24 12:03:29;;;;;;;39.60;37.60;;;31.10;84.10;;;;;;4995387;28;20034;-74
2023/06/24 12:05:55;;;;;;;40.95;38.83;;;31.20;86.00;;;;;;4995132;28;20371;-75
2023/06/24 12:08:22;;;;;;;44.88;42.58;;;31.10;83.50;;;;;;4995258;28;20049;-74
2023/06/24 12:10:48;;;;;;;44.22;41.72;;;31.10;82.60;;;;;;4995191;28;20026;-75
2023/06/24 12:13:14;;;;;;;45.03;42.72;;;31.30;81.20;;;;;;4995299;28;20045;-74
2023/06/24 12:15:41;;;;;;;44.40;42.08;;;31.40;79.80;;;;;;5009661;28;20030;-75
2023/06/24 12:18:07;;;;;;;44.70;42.50;;;31.50;81.50;;;;;;5010320;28;20397;-74
2023/06/24 12:20:34;;;;;;;43.92;41.72;;;31.60;80.70;;;;;;4993659;28;20416;-74
2023/06/24 12:23:00;;;;;;;50.08;47.47;;;31.80;81.10;;;;;;4994628;28;20042;-74
2023/06/24 12:25:26;;;;;;;40.50;38.25;;;31.80;78.80;;;;;;5010117;28;20034;-75
2023/06/24 12:27:52;;;;;;;44.60;42.10;;;31.80;80.90;;;;;;5010089;28;20034;-75
2023/06/24 12:30:20;;;;;;;42.55;40.38;;;31.60;79.50;;;;;;5009712;28;20031;-75